Time;durP1;ratioP1;P1;durP2;ratioP2;P2;SDS_P1;SDS_P2;PMS_P1;PMS_P2;Temp;Humidity;BMP_temperature;BMP_pressure;BME280_temperature;BME280_humidity;BME280_pressure;Samples;Min_cycle;Max_cycle;Signal;HPM_P1;HPM_P2
2021/01/02 00:01:17;;;;;;;;;;;18.10;99.90;;;;;;5040758;28;19913;-79
2021/01/02 00:03:50;;;;;;;;;;;18.10;99.90;;;;;;5035939;28;20313;-80
2021/01/02 00:06:31;;;;;;;;;;;18.10;99.90;;;;;;5037391;28;19971;-82
2021/01/02 00:09:02;;;;;;;;;;;18.10;99.90;;;;;;5042445;28;19929;-81
2021/01/02 00:11:32;;;;;;;;;;;18.10;99.90;;;;;;5036735;28;19956;-83
2021/01/02 00:13:59;;;;;;;;;;;18.10;99.90;;;;;;5036284;28;19909;-82
2021/01/02 00:16:39;;;;;;;;;;;18.10;99.90;;;;;;5019320;28;19917;-82
2021/01/02 00:19:16;;;;;;;;;;;18.00;99.90;;;;;;5038539;28;19952;-81
2021/01/02 00:21:59;;;;;;;;;;;18.00;99.90;;;;;;5036699;28;19913;-82
2021/01/02 00:24:35;;;;;;;;;;;18.00;99.90;;;;;;5052904;28;20571;-81
2021/01/02 00:27:03;;;;;;;;;;;18.00;99.90;;;;;;5055719;28;19924;-80
2021/01/02 00:29:42;;;;;;;;;;;18.00;99.90;;;;;;5055874;28;19919;-81
2021/01/02 00:32:27;;;;;;;;;;;18.00;99.90;;;;;;5038613;28;19955;-82
2021/01/02 00:35:03;;;;;;;;;;;18.10;99.90;;;;;;5036844;28;19967;-82
2021/01/02 00:37:38;;;;;;;;;;;18.20;99.90;;;;;;5018564;28;19909;-81
2021/01/02 00:40:09;;;;;;;;;;;18.30;99.90;;;;;;5055647;28;19959;-82
2021/01/02 00:42:37;;;;;;;;;;;18.30;99.90;;;;;;5055650;28;19913;-81
2021/01/02 00:45:05;;;;;;;;;;;18.40;99.90;;;;;;5055747;28;19960;-84
2021/01/02 00:47:33;;;;;;;;;;;18.60;99.90;;;;;;5056116;28;20279;-83
2021/01/02 00:50:01;;;;;;;;;;;18.70;99.90;;;;;;5056169;28;19917;-80
2021/01/02 00:52:39;;;;;;;;;;;18.90;99.90;;;;;;5055529;28;19959;-80
2021/01/02 00:55:13;;;;;;;;;;;19.00;99.90;;;;;;5055791;28;20489;-81
2021/01/02 00:57:46;;;;;;;;;;;19.10;99.90;;;;;;5055978;28;19913;-82
2021/01/02 01:00:16;;;;;;;;;;;19.30;99.90;;;;;;5055824;28;19943;-81
2021/01/02 01:02:52;;;;;;;;;;;19.40;99.90;;;;;;5056127;28;19939;-80
2021/01/02 01:05:22;;;;;;;;;;;19.40;99.90;;;;;;5055603;28;20027;-81
2021/01/02 01:07:53;;;;;;;;;;;19.50;99.90;;;;;;5056206;28;19975;-81
2021/01/02 01:10:27;;;;;;;;;;;19.50;99.90;;;;;;5056137;28;19920;-82
2021/01/02 01:12:58;;;;;;;;;;;19.60;99.90;;;;;;5059249;28;19949;-81
2021/01/02 01:15:25;;;;;;;;;;;19.70;99.90;;;;;;5066957;28;19939;-82
2021/01/02 01:18:10;;;;;;;;;;;19.90;99.90;;;;;;5056150;28;20356;-82
2021/01/02 01:20:39;;;;;;;;;;;19.90;99.90;;;;;;5035872;28;20377;-82
2021/01/02 01:23:25;;;;;;;;;;;20.00;99.90;;;;;;5038203;28;19931;-81
2021/01/02 01:26:04;;;;;;;;;;;20.10;99.90;;;;;;5048632;28;19917;-82
2021/01/02 01:28:32;;;;;;;;;;;20.20;99.90;;;;;;5039361;28;19917;-82
2021/01/02 01:31:01;;;;;;;;;;;20.20;99.90;;;;;;5054703;28;19913;-84
2021/01/02 01:33:29;;;;;;;;;;;20.20;99.90;;;;;;5055467;28;19909;-86
2021/01/02 01:36:03;;;;;;;;;;;20.30;99.90;;;;;;5056463;28;20633;-86
2021/01/02 01:38:30;;;;;;;;;;;20.40;99.90;;;;;;5043085;28;19963;-83
2021/01/02 01:41:23;;;;;;;;;;;20.60;99.90;;;;;;5034824;28;19913;-85
2021/01/02 01:43:50;;;;;;;;;;;20.70;99.90;;;;;;5014885;28;19943;-87
2021/01/02 01:46:17;;;;;;;;;;;20.80;99.90;;;;;;5055856;28;19968;-85
2021/01/02 01:48:53;;;;;;;;;;;20.80;99.90;;;;;;5054250;28;19915;-87
2021/01/02 01:51:29;;;;;;;;;;;20.90;99.90;;;;;;5037282;28;19920;-85
2021/01/02 01:54:00;;;;;;;;;;;21.10;99.90;;;;;;5037511;28;19948;-85
2021/01/02 01:56:31;;;;;;;;;;;21.20;99.90;;;;;;5049474;28;20019;-85
2021/01/02 01:59:16;;;;;;;;;;;21.10;99.90;;;;;;5048886;28;19915;-86
2021/01/02 02:01:53;;;;;;;;;;;21.10;99.90;;;;;;5043557;28;19913;-85
2021/01/02 02:04:25;;;;;;;;;;;21.10;99.90;;;;;;5055056;28;19916;-84
2021/01/02 02:06:59;;;;;;;;;;;21.20;99.90;;;;;;5041409;28;19920;-83
2021/01/02 02:09:40;;;;;;;;;;;21.10;99.70;;;;;;5036047;28;20338;-84
2021/01/02 02:12:14;;;;;;;;;;;21.10;99.90;;;;;;5036371;28;19962;-89
2021/01/02 02:14:47;;;;;;;;;;;21.10;99.60;;;;;;5037506;28;19912;-84
2021/01/02 02:17:17;;;;;;;;;;;21.00;99.90;;;;;;5053600;28;19913;-86
2021/01/02 02:20:07;;;;;;;;;;;21.00;99.90;;;;;;5054345;28;19909;-85
2021/01/02 02:22:43;;;;;;;;;;;21.00;99.90;;;;;;5054425;28;19913;-84
2021/01/02 02:25:18;;;;;;;;;;;21.00;99.90;;;;;;5034314;28;20382;-83
2021/01/02 02:27:47;;;;;;;;;;;21.00;99.90;;;;;;5035354;28;20008;-84
2021/01/02 02:30:15;;;;;;;;;;;21.00;99.90;;;;;;5054443;28;20339;-83
2021/01/02 02:32:43;;;;;;;;;;;20.90;99.90;;;;;;5054798;28;19912;-82
2021/01/02 02:35:30;;;;;;;;;;;20.80;99.90;;;;;;5063961;28;19913;-83
2021/01/02 02:37:57;;;;;;;;;;;20.80;99.90;;;;;;5071724;28;19917;-83
2021/01/02 02:40:23;;;;;;;;;;;20.80;99.90;;;;;;5053607;28;19923;-83
2021/01/02 02:43:01;;;;;;;;;;;20.70;99.90;;;;;;5053782;28;20339;-85
2021/01/02 02:45:29;;;;;;;;;;;20.70;99.90;;;;;;5054216;28;19971;-84
2021/01/02 02:47:57;;;;;;;;;;;20.70;99.90;;;;;;5053066;28;19939;-84
2021/01/02 02:50:25;;;;;;;;;;;20.70;99.90;;;;;;5054245;28;19912;-84
2021/01/02 02:53:04;;;;;;;;;;;20.60;99.90;;;;;;5057857;28;19913;-85
2021/01/02 02:55:30;;;;;;;;;;;20.70;99.90;;;;;;5064790;28;20253;-84
2021/01/02 02:57:59;;;;;;;;;;;20.60;99.90;;;;;;5053731;28;20423;-85
2021/01/02 03:00:26;;;;;;;;;;;20.50;99.90;;;;;;5053818;28;19909;-85
2021/01/02 03:02:55;;;;;;;;;;;20.50;99.90;;;;;;5035674;28;19962;-83
2021/01/02 03:05:22;;;;;;;;;;;20.50;99.90;;;;;;5035871;28;20007;-84
2021/01/02 03:07:50;;;;;;;;;;;20.50;99.90;;;;;;5032157;28;20008;-83
2021/01/02 03:10:18;;;;;;;;;;;20.40;99.90;;;;;;5031428;28;19928;-83
2021/01/02 03:12:49;;;;;;;;;;;20.30;99.90;;;;;;5033754;28;19991;-84
2021/01/02 03:15:18;;;;;;;;;;;20.20;99.90;;;;;;5011160;28;19916;-83
2021/01/02 03:17:45;;;;;;;;;;;20.10;99.90;;;;;;5024185;28;19909;-85
2021/01/02 03:20:13;;;;;;;;;;;19.90;99.90;;;;;;5015961;28;19940;-83
2021/01/02 03:22:40;;;;;;;;;;;19.80;99.90;;;;;;5033722;28;19913;-83
2021/01/02 03:25:08;;;;;;;;;;;19.70;99.90;;;;;;5042284;28;19968;-84
2021/01/02 03:27:35;;;;;;;;;;;19.70;99.90;;;;;;5051016;28;19924;-84
2021/01/02 03:30:02;;;;;;;;;;;19.70;99.90;;;;;;5024987;28;20379;-83
2021/01/02 03:32:28;;;;;;;;;;;19.70;99.90;;;;;;5034142;28;20295;-84
2021/01/02 03:34:55;;;;;;;;;;;19.70;99.90;;;;;;5033802;28;19948;-83
2021/01/02 03:37:23;;;;;;;;;;;19.70;99.90;;;;;;5033742;28;19920;-84
2021/01/02 03:39:50;;;;;;;;;;;19.70;99.90;;;;;;5037767;28;19920;-84
2021/01/02 03:42:16;;;;;;;;;;;19.60;99.90;;;;;;5037761;28;19959;-84
2021/01/02 03:44:43;;;;;;;;;;;19.60;99.90;;;;;;5042030;28;20315;-84
2021/01/02 03:47:10;;;;;;;;;;;19.60;99.90;;;;;;5036404;28;19939;-83
2021/01/02 03:49:37;;;;;;;;;;;19.50;99.90;;;;;;5036533;28;19917;-85
2021/01/02 03:52:05;;;;;;;;;;;19.50;99.90;;;;;;5036644;28;19917;-85
2021/01/02 03:54:32;;;;;;;;;;;19.40;99.90;;;;;;5036549;28;20320;-84
2021/01/02 03:56:59;;;;;;;;;;;19.40;99.90;;;;;;5036645;28;19917;-84
2021/01/02 03:59:26;;;;;;;;;;;19.40;99.90;;;;;;5036731;28;19967;-84
2021/01/02 04:01:56;;;;;;;;;;;19.30;99.90;;;;;;5036492;28;19936;-83
2021/01/02 04:04:23;;;;;;;;;;;19.20;99.90;;;;;;5035755;28;19910;-84
2021/01/02 04:06:53;;;;;;;;;;;19.20;99.90;;;;;;5038474;28;19972;-82
2021/01/02 04:09:23;;;;;;;;;;;19.10;99.90;;;;;;5076754;28;19917;-84
2021/01/02 04:11:50;;;;;;;;;;;19.00;99.90;;;;;;5063238;28;20452;-83
2021/01/02 04:14:16;;;;;;;;;;;19.10;99.90;;;;;;5056995;28;19909;-84
2021/01/02 04:16:44;;;;;;;;;;;19.20;99.90;;;;;;5056669;28;19921;-84
2021/01/02 04:19:12;;;;;;;;;;;19.20;99.90;;;;;;5058581;28;20375;-84
2021/01/02 04:21:39;;;;;;;;;;;19.20;99.90;;;;;;5057088;28;19963;-84
2021/01/02 04:24:06;;;;;;;;;;;19.20;99.90;;;;;;5056209;28;19920;-84
2021/01/02 04:26:33;;;;;;;;;;;19.20;99.90;;;;;;5056849;28;19978;-84
2021/01/02 04:29:00;;;;;;;;;;;19.10;99.90;;;;;;5056653;28;20320;-84
2021/01/02 04:31:37;;;;;;;;;;;19.20;99.90;;;;;;5056914;28;20251;-83
2021/01/02 04:34:05;;;;;;;;;;;19.20;99.90;;;;;;5057035;28;19909;-83
2021/01/02 04:36:33;;;;;;;;;;;19.30;99.90;;;;;;5056771;28;19956;-83
2021/01/02 04:38:59;;;;;;;;;;;19.40;99.90;;;;;;5059138;28;19909;-84
2021/01/02 04:41:26;;;;;;;;;;;19.50;99.90;;;;;;5056465;28;19913;-82
2021/01/02 04:43:53;;;;;;;;;;;19.60;99.90;;;;;;5037320;28;20007;-85
2021/01/02 04:46:21;;;;;;;;;;;19.60;99.90;;;;;;5036720;28;19920;-84
2021/01/02 04:48:51;;;;;;;;;;;19.70;99.90;;;;;;5035786;28;19916;-82
2021/01/02 04:51:18;;;;;;;;;;;19.60;99.90;;;;;;5056307;28;19955;-85
2021/01/02 04:53:48;;;;;;;;;;;19.60;99.90;;;;;;5051812;28;20003;-85
2021/01/02 04:56:16;;;;;;;;;;;19.50;99.90;;;;;;5051463;28;19920;-82
2021/01/02 04:58:43;;;;;;;;;;;19.60;99.90;;;;;;5055814;28;19913;-82
2021/01/02 05:01:11;;;;;;;;;;;19.60;99.90;;;;;;5040066;28;20298;-83
2021/01/02 05:03:43;;;;;;;;;;;19.50;99.90;;;;;;5059947;28;19913;-83
2021/01/02 05:06:10;;;;;;;;;;;19.50;99.90;;;;;;5057619;28;20260;-82
2021/01/02 05:08:38;;;;;;;;;;;19.60;99.90;;;;;;5055900;28;19921;-83
2021/01/02 05:11:08;;;;;;;;;;;19.70;99.90;;;;;;5054377;28;20223;-84
2021/01/02 05:13:38;;;;;;;;;;;19.70;99.90;;;;;;5054741;28;19912;-81
2021/01/02 05:16:18;;;;;;;;;;;19.80;99.90;;;;;;5053887;28;19912;-82
2021/01/02 05:18:52;;;;;;;;;;;19.90;99.90;;;;;;5053055;28;19936;-83
2021/01/02 05:21:29;;;;;;;;;;;20.00;99.90;;;;;;5048555;28;20383;-81
2021/01/02 05:24:02;;;;;;;;;;;20.10;99.90;;;;;;5049082;28;19913;-82
2021/01/02 05:26:29;;;;;;;;;;;20.00;99.90;;;;;;5052011;28;19921;-80
2021/01/02 05:29:08;;;;;;;;;;;19.90;99.90;;;;;;5034103;28;19912;-81
2021/01/02 05:31:37;;;;;;;;;;;19.90;99.90;;;;;;5051478;28;19948;-81
2021/01/02 05:34:07;;;;;;;;;;;19.90;99.90;;;;;;5055542;28;19909;-85
2021/01/02 05:36:37;;;;;;;;;;;19.90;99.90;;;;;;5053803;28;19913;-84
2021/01/02 05:39:05;;;;;;;;;;;19.90;99.90;;;;;;5054508;28;20006;-83
2021/01/02 05:41:51;;;;;;;;;;;19.90;99.90;;;;;;5054543;28;19913;-83
2021/01/02 05:44:19;;;;;;;;;;;20.00;99.90;;;;;;5054629;28;19913;-85
2021/01/02 05:46:50;;;;;;;;;;;19.90;99.90;;;;;;5054125;28;20071;-83
2021/01/02 05:49:35;;;;;;;;;;;19.90;99.90;;;;;;5037059;28;19974;-83
2021/01/02 05:52:09;;;;;;;;;;;19.80;99.90;;;;;;5054696;28;20003;-82
2021/01/02 05:54:40;;;;;;;;;;;19.80;99.90;;;;;;5053887;28;20362;-82
2021/01/02 05:57:07;;;;;;;;;;;19.70;99.90;;;;;;5054246;28;19934;-82
2021/01/02 05:59:40;;;;;;;;;;;19.70;99.90;;;;;;5057158;28;20356;-83
2021/01/02 06:02:33;;;;;;;;;;;19.70;99.90;;;;;;5030193;28;19912;-82
2021/01/02 06:05:05;;;;;;;;;;;19.70;99.90;;;;;;5030990;28;20045;-85
2021/01/02 06:07:48;;;;;;;;;;;19.70;99.90;;;;;;5033642;28;19936;-85
2021/01/02 06:10:24;;;;;;;;;;;19.60;99.90;;;;;;5035031;28;20229;-84
2021/01/02 06:12:51;;;;;;;;;;;19.70;99.90;;;;;;5018344;28;19999;-83
2021/01/02 06:15:22;;;;;;;;;;;19.70;99.90;;;;;;5018537;28;19910;-85
2021/01/02 06:17:53;;;;;;;;;;;19.60;99.90;;;;;;5022696;28;20016;-85
2021/01/02 06:20:23;;;;;;;;;;;19.60;99.90;;;;;;5054400;28;19931;-83
2021/01/02 06:22:53;;;;;;;;;;;19.60;99.90;;;;;;5046720;28;19966;-83
2021/01/02 06:28:24;;;;;;;;;;;19.50;99.90;;;;;;5033468;28;20431;-82
2021/01/02 06:31:01;;;;;;;;;;;19.60;99.90;;;;;;5045169;28;19939;-84
2021/01/02 06:33:28;;;;;;;;;;;19.60;99.90;;;;;;5054522;28;20355;-82
2021/01/02 06:35:55;;;;;;;;;;;19.60;99.90;;;;;;5045921;28;19958;-83
2021/01/02 06:38:22;;;;;;;;;;;19.60;99.90;;;;;;5055848;28;19912;-82
2021/01/02 06:40:50;;;;;;;;;;;19.50;99.90;;;;;;5053228;28;19909;-83
2021/01/02 06:43:18;;;;;;;;;;;19.60;99.90;;;;;;5033135;28;19913;-81
2021/01/02 06:45:49;;;;;;;;;;;19.60;99.90;;;;;;5033503;28;20005;-82
2021/01/02 06:48:25;;;;;;;;;;;19.60;99.90;;;;;;5051700;28;20279;-83
2021/01/02 06:50:52;;;;;;;;;;;19.50;99.90;;;;;;5033527;28;19920;-82
2021/01/02 06:53:20;;;;;;;;;;;19.60;99.90;;;;;;5033019;28;19919;-82
2021/01/02 06:55:57;;;;;;;;;;;19.50;99.90;;;;;;5033119;28;20333;-81
2021/01/02 06:58:24;;;;;;;;;;;19.50;99.90;;;;;;5019847;28;19933;-81
2021/01/02 07:00:50;;;;;;;;;;;19.40;99.90;;;;;;5032598;28;19924;-83
2021/01/02 07:03:38;;;;;;;;;;;19.40;99.90;;;;;;5033535;28;19908;-82
2021/01/02 07:06:24;;;;;;;;;;;19.40;99.90;;;;;;5032631;28;19952;-80
2021/01/02 07:08:56;;;;;;;;;;;19.50;99.90;;;;;;5050656;28;20326;-82
2021/01/02 07:11:37;;;;;;;;;;;19.50;99.90;;;;;;5049697;28;19967;-83
2021/01/02 07:14:14;;;;;;;;;;;19.50;99.90;;;;;;5043188;28;20257;-82
2021/01/02 07:16:49;;;;;;;;;;;19.50;99.90;;;;;;5051679;28;19967;-83
2021/01/02 07:21:58;;;;;;;;;;;19.50;99.90;;;;;;5049774;28;19917;-85
2021/01/02 07:24:26;;;;;;;;;;;19.40;99.90;;;;;;5036327;28;20256;-82
2021/01/02 07:27:00;;;;;;;;;;;19.50;99.90;;;;;;5017429;28;19925;-80
2021/01/02 07:29:28;;;;;;;;;;;19.40;99.90;;;;;;5032531;28;19920;-82
2021/01/02 07:32:03;;;;;;;;;;;19.40;99.90;;;;;;5033654;28;19921;-82
2021/01/02 07:34:30;;;;;;;;;;;19.40;99.90;;;;;;5035944;28;19913;-82
2021/01/02 07:36:57;;;;;;;;;;;19.40;99.90;;;;;;5050774;28;19909;-83
2021/01/02 07:39:23;;;;;;;;;;;19.40;99.90;;;;;;5031070;28;19920;-88
2021/01/02 07:41:52;;;;;;;;;;;19.30;99.90;;;;;;5047263;28;19952;-85
2021/01/02 07:44:24;;;;;;;;;;;19.40;99.90;;;;;;5066122;28;19916;-86
2021/01/02 07:46:51;;;;;;;;;;;19.40;99.90;;;;;;5050886;28;20067;-84
2021/01/02 07:49:18;;;;;;;;;;;19.40;99.90;;;;;;5051056;28;19913;-86
2021/01/02 07:51:49;;;;;;;;;;;19.40;99.90;;;;;;5035234;28;19998;-86
2021/01/02 07:54:47;;;;;;;;;;;19.40;99.90;;;;;;5051641;28;20071;-85
2021/01/02 07:57:22;;;;;;;;;;;19.30;99.90;;;;;;4987134;28;19913;-85
2021/01/02 07:59:49;;;;;;;;;;;19.30;99.90;;;;;;5035737;28;19999;-86
2021/01/02 08:02:20;;;;;;;;;;;19.30;99.90;;;;;;5051215;28;19921;-85
2021/01/02 08:04:50;;;;;;;;;;;19.30;99.90;;;;;;5033840;28;20271;-85
2021/01/02 08:07:17;;;;;;;;;;;19.30;99.90;;;;;;5042950;28;20410;-85
2021/01/02 08:09:45;;;;;;;;;;;19.30;99.90;;;;;;5053175;28;20286;-85
2021/01/02 08:12:13;;;;;;;;;;;19.30;99.90;;;;;;5053209;28;19913;-86
2021/01/02 08:14:49;;;;;;;;;;;19.30;99.90;;;;;;5050953;28;19980;-84
2021/01/02 08:17:16;;;;;;;;;;;19.30;99.90;;;;;;5020880;28;19917;-83
2021/01/02 08:19:49;;;;;;;;;;;19.20;99.90;;;;;;5032351;28;19927;-84
2021/01/02 08:22:38;;;;;;;;;;;19.10;99.90;;;;;;5018501;28;20275;-85
2021/01/02 08:25:08;;;;;;;;;;;19.20;99.90;;;;;;5035169;28;19936;-84
2021/01/02 08:31:00;;;;;;;;;;;19.20;99.90;;;;;;4964820;28;19923;-86
2021/01/02 08:33:27;;;;;;;;;;;19.10;99.90;;;;;;4975188;28;20037;-86
2021/01/02 08:35:54;;;;;;;;;;;19.10;99.90;;;;;;5021845;28;19967;-85
2021/01/02 08:38:28;;;;;;;;;;;19.10;99.90;;;;;;5027024;28;19968;-85
2021/01/02 08:40:54;;;;;;;;;;;19.10;99.90;;;;;;5025158;28;19960;-85
2021/01/02 08:43:21;;;;;;;;;;;19.20;99.90;;;;;;5056425;28;20003;-85
2021/01/02 08:46:02;;;;;;;;;;;19.20;99.90;;;;;;5026187;28;19970;-85
2021/01/02 08:48:32;;;;;;;;;;;19.20;99.90;;;;;;5056508;28;19952;-86
2021/01/02 08:50:58;;;;;;;;;;;19.10;99.90;;;;;;5036772;28;19917;-85
2021/01/02 08:53:31;;;;;;;;;;;19.10;99.90;;;;;;5019528;28;19916;-84
2021/01/02 08:55:57;;;;;;;;;;;19.10;99.90;;;;;;5018626;28;19920;-83
2021/01/02 08:58:31;;;;;;;;;;;19.10;99.90;;;;;;5051981;28;20019;-83
2021/01/02 09:00:58;;;;;;;;;;;19.10;99.90;;;;;;5056870;28;19912;-83
2021/01/02 09:03:24;;;;;;;;;;;19.10;99.90;;;;;;5061615;28;19909;-83
2021/01/02 09:05:51;;;;;;;;;;;19.10;99.90;;;;;;5057109;28;20434;-86
2021/01/02 09:08:19;;;;;;;;;;;19.10;99.90;;;;;;5055143;28;20545;-83
2021/01/02 09:10:46;;;;;;;;;;;19.10;99.90;;;;;;5051647;28;19982;-85
2021/01/02 09:13:13;;;;;;;;;;;19.10;99.90;;;;;;5056127;28;19936;-84
2021/01/02 09:15:41;;;;;;;;;;;19.10;99.90;;;;;;5034062;28;20260;-85
2021/01/02 09:18:12;;;;;;;;;;;19.00;99.90;;;;;;5046015;28;20140;-84
2021/01/02 09:20:41;;;;;;;;;;;19.00;99.90;;;;;;5044254;28;19919;-88
2021/01/02 09:23:10;;;;;;;;;;;19.00;99.90;;;;;;5045359;28;19967;-86
2021/01/02 09:25:38;;;;;;;;;;;19.00;99.90;;;;;;5055019;28;19928;-88
2021/01/02 09:28:21;;;;;;;;;;;19.00;99.90;;;;;;5038716;28;19928;-88
2021/01/02 09:30:49;;;;;;;;;;;19.00;99.90;;;;;;5039890;28;20293;-86
2021/01/02 09:33:17;;;;;;;;;;;19.00;99.90;;;;;;5031485;28;19913;-88
2021/01/02 09:35:46;;;;;;;;;;;19.00;99.90;;;;;;5031658;28;20426;-89
2021/01/02 09:38:17;;;;;;;;;;;19.00;99.90;;;;;;5049462;28;19939;-89
2021/01/02 09:40:44;;;;;;;;;;;19.00;99.90;;;;;;5051945;28;19970;-88
2021/01/02 09:43:13;;;;;;;;;;;19.00;99.90;;;;;;5042688;28;20351;-89
2021/01/02 09:45:40;;;;;;;;;;;19.00;99.90;;;;;;5051912;28;19923;-90
2021/01/02 09:48:09;;;;;;;;;;;19.00;99.90;;;;;;5036011;28;19947;-89
2021/01/02 09:50:35;;;;;;;;;;;19.00;99.90;;;;;;5044273;28;19916;-90
2021/01/02 09:53:03;;;;;;;;;;;19.00;99.90;;;;;;5053776;28;19909;-90
2021/01/02 09:55:29;;;;;;;;;;;19.00;99.90;;;;;;5050866;28;19913;-84
2021/01/02 09:57:56;;;;;;;;;;;19.00;99.90;;;;;;5034851;28;19936;-86
2021/01/02 10:00:23;;;;;;;;;;;19.00;99.90;;;;;;5051969;28;19919;-86
2021/01/02 10:02:50;;;;;;;;;;;19.00;99.90;;;;;;5034044;28;19916;-86
2021/01/02 10:05:18;;;;;;;;;;;19.00;99.90;;;;;;5032811;28;19917;-86
2021/01/02 10:07:44;;;;;;;;;;;19.00;99.90;;;;;;5030142;28;19928;-88
2021/01/02 10:10:12;;;;;;;;;;;19.00;99.90;;;;;;5014090;28;19921;-86
2021/01/02 10:12:40;;;;;;;;;;;19.00;99.90;;;;;;5012423;28;19921;-89
2021/01/02 10:15:07;;;;;;;;;;;19.10;99.90;;;;;;5013500;28;20008;-86
2021/01/02 10:17:33;;;;;;;;;;;19.20;99.90;;;;;;5014073;28;19917;-88
2021/01/02 10:20:00;;;;;;;;;;;19.20;99.90;;;;;;5011878;28;19917;-89
2021/01/02 10:22:27;;;;;;;;;;;19.10;99.90;;;;;;5010616;28;19917;-84
2021/01/02 10:24:54;;;;;;;;;;;19.10;99.90;;;;;;5012610;28;19955;-85
2021/01/02 10:27:22;;;;;;;;;;;19.00;99.90;;;;;;5012860;28;20332;-85
2021/01/02 10:29:50;;;;;;;;;;;19.00;99.90;;;;;;5011674;28;19920;-87
2021/01/02 10:32:18;;;;;;;;;;;19.00;99.90;;;;;;5010976;28;19913;-87
2021/01/02 10:34:45;;;;;;;;;;;19.00;99.90;;;;;;5011881;28;19929;-86
2021/01/02 10:37:13;;;;;;;;;;;19.00;99.90;;;;;;5009521;28;20530;-84
2021/01/02 10:39:40;;;;;;;;;;;19.00;99.90;;;;;;5008864;28;19924;-87
2021/01/02 10:42:06;;;;;;;;;;;19.00;99.90;;;;;;5022948;28;19918;-85
2021/01/02 10:44:33;;;;;;;;;;;18.90;99.90;;;;;;5017491;28;19921;-85
2021/01/02 10:47:00;;;;;;;;;;;18.90;99.90;;;;;;5010528;28;19933;-86
2021/01/02 10:49:27;;;;;;;;;;;18.90;99.90;;;;;;5010398;28;20551;-87
2021/01/02 10:51:55;;;;;;;;;;;19.00;99.90;;;;;;5008896;28;20008;-85
2021/01/02 10:54:22;;;;;;;;;;;18.90;99.90;;;;;;5012474;28;19921;-88
2021/01/02 10:56:53;;;;;;;;;;;18.90;99.90;;;;;;5011699;28;19956;-90
2021/01/02 10:59:21;;;;;;;;;;;18.90;99.90;;;;;;5011562;28;20436;-83
2021/01/02 11:01:50;;;;;;;;;;;18.90;99.90;;;;;;5012174;28;19921;-86
2021/01/02 11:04:18;;;;;;;;;;;18.90;99.90;;;;;;5014396;28;19913;-87
2021/01/02 11:06:46;;;;;;;;;;;19.00;99.90;;;;;;5013611;28;20276;-89
2021/01/02 11:09:14;;;;;;;;;;;19.00;99.90;;;;;;5051481;28;19924;-85
2021/01/02 11:11:42;;;;;;;;;;;19.00;99.90;;;;;;5051746;28;19948;-88
2021/01/02 11:14:10;;;;;;;;;;;19.10;99.90;;;;;;5052324;28;20004;-86
2021/01/02 11:16:38;;;;;;;;;;;19.10;99.90;;;;;;5051658;28;20298;-89
2021/01/02 11:19:24;;;;;;;;;;;19.00;99.90;;;;;;5051612;28;20280;-90
2021/01/02 11:21:56;;;;;;;;;;;19.00;99.90;;;;;;5045279;28;19917;-89
2021/01/02 11:24:24;;;;;;;;;;;19.00;99.90;;;;;;5033405;28;19925;-85
2021/01/02 11:26:52;;;;;;;;;;;19.00;99.90;;;;;;5051097;28;20425;-91
2021/01/02 11:29:20;;;;;;;;;;;19.00;99.90;;;;;;5037376;28;19913;-88
2021/01/02 11:31:47;;;;;;;;;;;19.00;99.90;;;;;;5049344;28;19958;-87
2021/01/02 11:34:14;;;;;;;;;;;19.00;99.90;;;;;;5050877;28;19920;-84
2021/01/02 11:36:41;;;;;;;;;;;19.00;99.90;;;;;;5048309;28;19971;-87
2021/01/02 11:39:08;;;;;;;;;;;19.00;99.90;;;;;;5034636;28;19913;-86
2021/01/02 11:41:40;;;;;;;;;;;19.00;99.90;;;;;;5038103;28;19950;-87
2021/01/02 11:44:07;;;;;;;;;;;19.10;99.90;;;;;;5055464;28;19916;-88
2021/01/02 11:46:42;;;;;;;;;;;19.10;99.90;;;;;;5056279;28;20439;-87
2021/01/02 11:49:13;;;;;;;;;;;19.10;99.90;;;;;;5054311;28;19913;-87
2021/01/02 11:51:41;;;;;;;;;;;19.00;99.90;;;;;;5045416;28;19912;-87
2021/01/02 11:54:08;;;;;;;;;;;19.00;99.90;;;;;;5050755;28;19970;-87
2021/01/02 11:56:35;;;;;;;;;;;19.10;99.90;;;;;;5048918;28;20347;-89
2021/01/02 11:59:03;;;;;;;;;;;19.00;99.90;;;;;;5040044;28;19915;-87
2021/01/02 12:01:36;;;;;;;;;;;19.10;99.90;;;;;;5054409;28;19913;-85
2021/01/02 12:04:04;;;;;;;;;;;19.10;99.90;;;;;;5054522;28;19964;-82
2021/01/02 12:06:31;;;;;;;;;;;19.10;99.90;;;;;;5054671;28;19967;-84
2021/01/02 12:08:59;;;;;;;;;;;19.00;99.90;;;;;;5047155;28;20563;-88
2021/01/02 12:11:27;;;;;;;;;;;19.10;99.90;;;;;;5053701;28;20012;-82
2021/01/02 12:13:53;;;;;;;;;;;19.00;99.90;;;;;;5052714;28;19996;-86
2021/01/02 12:16:21;;;;;;;;;;;19.00;99.90;;;;;;5037244;28;20331;-85
2021/01/02 12:18:52;;;;;;;;;;;19.10;99.90;;;;;;5042525;28;20351;-87
2021/01/02 12:21:19;;;;;;;;;;;19.10;99.90;;;;;;5040720;28;19935;-87
2021/01/02 12:23:48;;;;;;;;;;;19.10;99.90;;;;;;5049883;28;19920;-90
2021/01/02 12:26:15;;;;;;;;;;;19.00;99.90;;;;;;5051715;28;19913;-90
2021/01/02 12:28:44;;;;;;;;;;;19.10;99.90;;;;;;5045929;28;19912;-88
2021/01/02 12:31:14;;;;;;;;;;;19.00;99.90;;;;;;5058460;28;19996;-84
2021/01/02 12:33:40;;;;;;;;;;;19.10;99.90;;;;;;5047688;28;20269;-90
2021/01/02 12:36:08;;;;;;;;;;;19.10;99.90;;;;;;5055560;28;20303;-89
2021/01/02 12:38:37;;;;;;;;;;;19.10;99.90;;;;;;5055968;28;19913;-89
2021/01/02 12:41:03;;;;;;;;;;;19.10;99.90;;;;;;5056757;28;19923;-88
2021/01/02 12:43:30;;;;;;;;;;;19.10;99.90;;;;;;5048667;28;19913;-90
2021/01/02 12:45:57;;;;;;;;;;;19.10;99.90;;;;;;5052707;28;19929;-82
2021/01/02 12:48:25;;;;;;;;;;;19.20;99.90;;;;;;5054537;28;19943;-86
2021/01/02 12:50:57;;;;;;;;;;;19.10;99.90;;;;;;5054474;28;20023;-87
2021/01/02 12:53:24;;;;;;;;;;;19.20;99.90;;;;;;5054012;28;19913;-87
2021/01/02 12:55:51;;;;;;;;;;;19.20;99.90;;;;;;5054979;28;19916;-90
2021/01/02 12:58:21;;;;;;;;;;;19.20;99.90;;;;;;5053412;28;19913;-86
2021/01/02 13:00:48;;;;;;;;;;;19.20;99.90;;;;;;5046331;28;19916;-87
2021/01/02 13:03:15;;;;;;;;;;;19.30;99.90;;;;;;5054293;28;19909;-86
2021/01/02 13:05:44;;;;;;;;;;;19.30;99.90;;;;;;5053905;28;19916;-89
2021/01/02 13:08:11;;;;;;;;;;;19.30;99.90;;;;;;5052715;28;19921;-87
2021/01/02 13:10:38;;;;;;;;;;;19.30;99.90;;;;;;5034512;28;19913;-87
2021/01/02 13:13:05;;;;;;;;;;;19.20;99.90;;;;;;5054297;28;19913;-85
2021/01/02 13:15:33;;;;;;;;;;;19.20;99.90;;;;;;5054601;28;20023;-87
2021/01/02 13:18:00;;;;;;;;;;;19.30;99.90;;;;;;5054093;28;20000;-87
2021/01/02 13:20:27;;;;;;;;;;;19.30;99.90;;;;;;5053457;28;19917;-88
2021/01/02 13:22:54;;;;;;;;;;;19.30;99.90;;;;;;5054971;28;19920;-81
2021/01/02 13:25:20;;;;;;;;;;;19.40;99.90;;;;;;5053667;28;19959;-87
2021/01/02 13:27:47;;;;;;;;;;;19.30;99.90;;;;;;5054434;28;19912;-88
2021/01/02 13:30:15;;;;;;;;;;;19.30;99.90;;;;;;5053957;28;19951;-88
2021/01/02 13:32:42;;;;;;;;;;;19.30;99.90;;;;;;5036920;28;19932;-87
2021/01/02 13:35:09;;;;;;;;;;;19.30;99.90;;;;;;5031532;28;20013;-88
2021/01/02 13:37:36;;;;;;;;;;;19.30;99.90;;;;;;5053587;28;19959;-88
2021/01/02 13:40:04;;;;;;;;;;;19.30;99.90;;;;;;5036177;28;19913;-86
2021/01/02 13:42:31;;;;;;;;;;;19.30;99.90;;;;;;5036994;28;20014;-87
2021/01/02 13:44:58;;;;;;;;;;;19.30;99.90;;;;;;5037037;28;19924;-87
2021/01/02 13:47:25;;;;;;;;;;;19.20;99.90;;;;;;5054149;28;19966;-86
2021/01/02 13:49:52;;;;;;;;;;;19.30;99.90;;;;;;5052499;28;20399;-90
2021/01/02 13:52:21;;;;;;;;;;;19.20;99.90;;;;;;5054255;28;19909;-87
2021/01/02 13:54:49;;;;;;;;;;;19.20;99.90;;;;;;5053023;28;19913;-87
2021/01/02 13:57:15;;;;;;;;;;;19.20;99.90;;;;;;5036760;28;20330;-88
2021/01/02 13:59:45;;;;;;;;;;;19.30;99.90;;;;;;5037165;28;19913;-87
2021/01/02 14:02:12;;;;;;;;;;;19.30;99.90;;;;;;5036825;28;19917;-87
2021/01/02 14:04:42;;;;;;;;;;;19.30;99.90;;;;;;5054625;28;19952;-87
2021/01/02 14:07:09;;;;;;;;;;;19.30;99.90;;;;;;5036705;28;19921;-86
2021/01/02 14:09:36;;;;;;;;;;;19.30;99.90;;;;;;5036981;28;20406;-86
2021/01/02 14:12:06;;;;;;;;;;;19.20;99.90;;;;;;5037042;28;19913;-86
2021/01/02 14:14:34;;;;;;;;;;;19.20;99.90;;;;;;5036899;28;20275;-87
2021/01/02 14:17:01;;;;;;;;;;;19.20;99.90;;;;;;5037113;28;20012;-86
2021/01/02 14:19:32;;;;;;;;;;;19.30;99.90;;;;;;5036468;28;19916;-87
2021/01/02 14:22:00;;;;;;;;;;;19.20;99.90;;;;;;5036575;28;20309;-86
2021/01/02 14:24:28;;;;;;;;;;;19.30;99.90;;;;;;5036321;28;19958;-87
2021/01/02 14:26:59;;;;;;;;;;;19.30;99.90;;;;;;5036279;28;19921;-88
2021/01/02 14:29:26;;;;;;;;;;;19.30;99.90;;;;;;5035873;28;20295;-88
2021/01/02 14:31:54;;;;;;;;;;;19.30;99.90;;;;;;5035866;28;19920;-88
2021/01/02 14:34:22;;;;;;;;;;;19.30;99.90;;;;;;5036374;28;19921;-88
2021/01/02 14:36:50;;;;;;;;;;;19.30;99.90;;;;;;5035742;28;19917;-88
2021/01/02 14:39:16;;;;;;;;;;;19.30;99.90;;;;;;5035664;28;19917;-87
2021/01/02 14:41:43;;;;;;;;;;;19.30;99.90;;;;;;5053673;28;19917;-87